sensor_id;sensor_type;location;lat;lon;timestamp;P1;durP1;ratioP1;P2;durP2;ratioP2
30948;SDS011;17637;51.984;21.208;2024-01-27T00:01:40;18.02;;;11.63;;
30948;SDS011;17637;51.984;21.208;2024-01-27T00:04:12;18.25;;;11.73;;
30948;SDS011;17637;51.984;21.208;2024-01-27T00:06:44;15.00;;;9.82;;
30948;SDS011;17637;51.984;21.208;2024-01-27T00:09:16;14.35;;;8.13;;
30948;SDS011;17637;51.984;21.208;2024-01-27T00:11:48;16.23;;;9.68;;
30948;SDS011;17637;51.984;21.208;2024-01-27T00:14:20;12.25;;;6.90;;
30948;SDS011;17637;51.984;21.208;2024-01-27T00:16:51;6.80;;;4.63;;
30948;SDS011;17637;51.984;21.208;2024-01-27T00:19:23;8.57;;;4.35;;
30948;SDS011;17637;51.984;21.208;2024-01-27T00:21:55;9.02;;;3.10;;
30948;SDS011;17637;51.984;21.208;2024-01-27T00:24:27;9.82;;;4.60;;
30948;SDS011;17637;51.984;21.208;2024-01-27T00:27:00;8.48;;;3.80;;
30948;SDS011;17637;51.984;21.208;2024-01-27T00:29:32;11.40;;;3.17;;
30948;SDS011;17637;51.984;21.208;2024-01-27T00:32:04;8.50;;;3.15;;
30948;SDS011;17637;51.984;21.208;2024-01-27T00:34:36;8.88;;;2.92;;
30948;SDS011;17637;51.984;21.208;2024-01-27T00:37:08;10.63;;;3.38;;
30948;SDS011;17637;51.984;21.208;2024-01-27T00:39:39;7.38;;;2.90;;
30948;SDS011;17637;51.984;21.208;2024-01-27T00:42:12;5.88;;;2.50;;
30948;SDS011;17637;51.984;21.208;2024-01-27T00:44:44;8.43;;;2.88;;
30948;SDS011;17637;51.984;21.208;2024-01-27T00:47:15;10.23;;;3.28;;
30948;SDS011;17637;51.984;21.208;2024-01-27T00:49:47;9.05;;;2.83;;
30948;SDS011;17637;51.984;21.208;2024-01-27T00:52:20;10.73;;;2.65;;
30948;SDS011;17637;51.984;21.208;2024-01-27T00:54:51;10.38;;;2.97;;
30948;SDS011;17637;51.984;21.208;2024-01-27T00:57:23;13.05;;;3.20;;
30948;SDS011;17637;51.984;21.208;2024-01-27T00:59:55;9.48;;;2.92;;
30948;SDS011;17637;51.984;21.208;2024-01-27T01:02:27;13.82;;;3.88;;
30948;SDS011;17637;51.984;21.208;2024-01-27T01:05:00;5.35;;;2.03;;
30948;SDS011;17637;51.984;21.208;2024-01-27T01:07:35;6.43;;;2.58;;
30948;SDS011;17637;51.984;21.208;2024-01-27T01:10:07;8.25;;;2.58;;
30948;SDS011;17637;51.984;21.208;2024-01-27T01:12:40;10.02;;;3.50;;
30948;SDS011;17637;51.984;21.208;2024-01-27T01:15:12;11.57;;;3.20;;
30948;SDS011;17637;51.984;21.208;2024-01-27T01:17:44;9.05;;;2.53;;
30948;SDS011;17637;51.984;21.208;2024-01-27T01:20:16;9.65;;;2.17;;
30948;SDS011;17637;51.984;21.208;2024-01-27T01:22:48;8.80;;;2.70;;
30948;SDS011;17637;51.984;21.208;2024-01-27T01:25:20;8.25;;;2.35;;
30948;SDS011;17637;51.984;21.208;2024-01-27T01:27:51;6.70;;;2.58;;
30948;SDS011;17637;51.984;21.208;2024-01-27T01:30:23;13.88;;;2.92;;
30948;SDS011;17637;51.984;21.208;2024-01-27T01:32:55;11.95;;;2.75;;
30948;SDS011;17637;51.984;21.208;2024-01-27T01:35:27;10.73;;;2.33;;
30948;SDS011;17637;51.984;21.208;2024-01-27T01:38:00;8.30;;;2.30;;
30948;SDS011;17637;51.984;21.208;2024-01-27T01:40:31;6.85;;;2.35;;
30948;SDS011;17637;51.984;21.208;2024-01-27T01:43:08;10.68;;;2.03;;
30948;SDS011;17637;51.984;21.208;2024-01-27T01:45:43;6.97;;;2.83;;
30948;SDS011;17637;51.984;21.208;2024-01-27T01:48:15;10.35;;;2.60;;
30948;SDS011;17637;51.984;21.208;2024-01-27T01:50:49;10.45;;;2.63;;
30948;SDS011;17637;51.984;21.208;2024-01-27T01:53:21;12.43;;;2.55;;
30948;SDS011;17637;51.984;21.208;2024-01-27T01:55:54;16.83;;;2.70;;
30948;SDS011;17637;51.984;21.208;2024-01-27T01:58:27;14.48;;;2.80;;
30948;SDS011;17637;51.984;21.208;2024-01-27T02:01:05;13.98;;;3.08;;
30948;SDS011;17637;51.984;21.208;2024-01-27T02:03:37;15.65;;;3.15;;
30948;SDS011;17637;51.984;21.208;2024-01-27T02:06:09;9.93;;;2.67;;
30948;SDS011;17637;51.984;21.208;2024-01-27T02:08:41;17.02;;;3.13;;
30948;SDS011;17637;51.984;21.208;2024-01-27T02:11:13;12.40;;;2.95;;
30948;SDS011;17637;51.984;21.208;2024-01-27T02:13:46;12.35;;;3.10;;
30948;SDS011;17637;51.984;21.208;2024-01-27T02:16:18;11.50;;;2.80;;
30948;SDS011;17637;51.984;21.208;2024-01-27T02:18:50;16.20;;;2.88;;
30948;SDS011;17637;51.984;21.208;2024-01-27T02:21:22;14.00;;;2.97;;
30948;SDS011;17637;51.984;21.208;2024-01-27T02:23:54;16.83;;;3.65;;
30948;SDS011;17637;51.984;21.208;2024-01-27T02:26:26;15.27;;;3.25;;
30948;SDS011;17637;51.984;21.208;2024-01-27T02:28:58;16.42;;;3.42;;
30948;SDS011;17637;51.984;21.208;2024-01-27T02:31:29;13.10;;;3.08;;
30948;SDS011;17637;51.984;21.208;2024-01-27T02:34:01;18.10;;;3.70;;
30948;SDS011;17637;51.984;21.208;2024-01-27T02:36:34;12.82;;;3.40;;
30948;SDS011;17637;51.984;21.208;2024-01-27T02:39:05;12.98;;;2.90;;
30948;SDS011;17637;51.984;21.208;2024-01-27T02:41:37;15.82;;;3.72;;
30948;SDS011;17637;51.984;21.208;2024-01-27T02:44:10;15.50;;;3.42;;
30948;SDS011;17637;51.984;21.208;2024-01-27T02:46:42;13.73;;;3.28;;
30948;SDS011;17637;51.984;21.208;2024-01-27T02:49:15;14.40;;;3.42;;
30948;SDS011;17637;51.984;21.208;2024-01-27T02:51:47;14.18;;;3.63;;
30948;SDS011;17637;51.984;21.208;2024-01-27T02:54:19;16.40;;;3.78;;
30948;SDS011;17637;51.984;21.208;2024-01-27T02:56:51;16.85;;;3.10;;
30948;SDS011;17637;51.984;21.208;2024-01-27T02:59:23;15.95;;;3.80;;
30948;SDS011;17637;51.984;21.208;2024-01-27T03:01:55;13.93;;;3.25;;
30948;SDS011;17637;51.984;21.208;2024-01-27T03:04:29;12.73;;;3.97;;
30948;SDS011;17637;51.984;21.208;2024-01-27T03:07:01;16.80;;;3.65;;
30948;SDS011;17637;51.984;21.208;2024-01-27T03:09:33;18.02;;;4.00;;
30948;SDS011;17637;51.984;21.208;2024-01-27T03:12:08;21.05;;;4.15;;
30948;SDS011;17637;51.984;21.208;2024-01-27T03:14:40;19.23;;;4.32;;
30948;SDS011;17637;51.984;21.208;2024-01-27T03:17:16;21.60;;;4.35;;
30948;SDS011;17637;51.984;21.208;2024-01-27T03:19:50;17.92;;;4.13;;
30948;SDS011;17637;51.984;21.208;2024-01-27T03:22:22;18.60;;;4.07;;
30948;SDS011;17637;51.984;21.208;2024-01-27T03:24:54;16.88;;;3.50;;
30948;SDS011;17637;51.984;21.208;2024-01-27T03:27:26;18.13;;;3.92;;
30948;SDS011;17637;51.984;21.208;2024-01-27T03:30:00;16.95;;;3.97;;
30948;SDS011;17637;51.984;21.208;2024-01-27T03:32:33;16.45;;;4.57;;
30948;SDS011;17637;51.984;21.208;2024-01-27T03:35:05;19.02;;;4.32;;
30948;SDS011;17637;51.984;21.208;2024-01-27T03:37:38;20.00;;;4.03;;
30948;SDS011;17637;51.984;21.208;2024-01-27T03:40:10;17.63;;;4.30;;
30948;SDS011;17637;51.984;21.208;2024-01-27T03:42:42;16.00;;;3.92;;
30948;SDS011;17637;51.984;21.208;2024-01-27T03:45:14;16.75;;;3.78;;
30948;SDS011;17637;51.984;21.208;2024-01-27T03:47:46;18.63;;;4.00;;
30948;SDS011;17637;51.984;21.208;2024-01-27T03:50:21;13.50;;;3.88;;
30948;SDS011;17637;51.984;21.208;2024-01-27T03:52:53;17.00;;;3.90;;
30948;SDS011;17637;51.984;21.208;2024-01-27T03:55:25;16.95;;;3.70;;
30948;SDS011;17637;51.984;21.208;2024-01-27T03:57:56;18.92;;;3.67;;
30948;SDS011;17637;51.984;21.208;2024-01-27T04:00:28;24.55;;;5.18;;
30948;SDS011;17637;51.984;21.208;2024-01-27T04:03:04;17.88;;;4.43;;
30948;SDS011;17637;51.984;21.208;2024-01-27T04:05:36;20.90;;;4.30;;
30948;SDS011;17637;51.984;21.208;2024-01-27T04:08:08;15.93;;;4.07;;
30948;SDS011;17637;51.984;21.208;2024-01-27T04:10:40;16.38;;;3.80;;
30948;SDS011;17637;51.984;21.208;2024-01-27T04:13:12;14.85;;;3.70;;
30948;SDS011;17637;51.984;21.208;2024-01-27T04:15:44;21.40;;;4.97;;
30948;SDS011;17637;51.984;21.208;2024-01-27T04:18:16;16.92;;;3.63;;
30948;SDS011;17637;51.984;21.208;2024-01-27T04:20:48;16.00;;;3.70;;
30948;SDS011;17637;51.984;21.208;2024-01-27T04:23:20;16.40;;;3.90;;
30948;SDS011;17637;51.984;21.208;2024-01-27T04:25:52;19.25;;;3.80;;
30948;SDS011;17637;51.984;21.208;2024-01-27T04:28:24;14.88;;;3.90;;
30948;SDS011;17637;51.984;21.208;2024-01-27T04:30:56;20.65;;;4.25;;
30948;SDS011;17637;51.984;21.208;2024-01-27T04:33:28;16.83;;;4.72;;
30948;SDS011;17637;51.984;21.208;2024-01-27T04:36:00;18.67;;;4.45;;
30948;SDS011;17637;51.984;21.208;2024-01-27T04:38:32;17.75;;;4.53;;
30948;SDS011;17637;51.984;21.208;2024-01-27T04:41:04;19.83;;;4.53;;
30948;SDS011;17637;51.984;21.208;2024-01-27T04:43:36;15.10;;;3.95;;
30948;SDS011;17637;51.984;21.208;2024-01-27T04:46:08;20.20;;;4.68;;
30948;SDS011;17637;51.984;21.208;2024-01-27T04:48:40;20.75;;;4.53;;
30948;SDS011;17637;51.984;21.208;2024-01-27T04:51:12;14.80;;;3.75;;
30948;SDS011;17637;51.984;21.208;2024-01-27T04:53:44;19.88;;;4.68;;
30948;SDS011;17637;51.984;21.208;2024-01-27T04:56:16;19.15;;;4.78;;
30948;SDS011;17637;51.984;21.208;2024-01-27T04:58:48;17.70;;;4.07;;
30948;SDS011;17637;51.984;21.208;2024-01-27T05:01:19;21.83;;;4.90;;
30948;SDS011;17637;51.984;21.208;2024-01-27T05:03:52;17.30;;;5.45;;
30948;SDS011;17637;51.984;21.208;2024-01-27T05:06:24;22.27;;;4.57;;
30948;SDS011;17637;51.984;21.208;2024-01-27T05:08:57;17.48;;;4.30;;
30948;SDS011;17637;51.984;21.208;2024-01-27T05:11:29;22.27;;;4.38;;
30948;SDS011;17637;51.984;21.208;2024-01-27T05:14:03;20.70;;;4.47;;
30948;SDS011;17637;51.984;21.208;2024-01-27T05:16:34;14.95;;;4.47;;
30948;SDS011;17637;51.984;21.208;2024-01-27T05:19:06;16.55;;;4.28;;
30948;SDS011;17637;51.984;21.208;2024-01-27T05:21:38;20.23;;;4.15;;
30948;SDS011;17637;51.984;21.208;2024-01-27T05:24:10;15.57;;;3.95;;
30948;SDS011;17637;51.984;21.208;2024-01-27T05:26:42;16.08;;;4.57;;
30948;SDS011;17637;51.984;21.208;2024-01-27T05:29:14;19.65;;;4.22;;
30948;SDS011;17637;51.984;21.208;2024-01-27T05:31:46;21.98;;;4.90;;
30948;SDS011;17637;51.984;21.208;2024-01-27T05:34:18;16.58;;;3.97;;
30948;SDS011;17637;51.984;21.208;2024-01-27T05:36:50;22.10;;;4.57;;
30948;SDS011;17637;51.984;21.208;2024-01-27T05:39:22;16.60;;;3.95;;
30948;SDS011;17637;51.984;21.208;2024-01-27T05:41:54;21.83;;;4.38;;
30948;SDS011;17637;51.984;21.208;2024-01-27T05:44:25;21.05;;;5.30;;
30948;SDS011;17637;51.984;21.208;2024-01-27T05:46:57;16.70;;;4.22;;
30948;SDS011;17637;51.984;21.208;2024-01-27T05:49:29;22.73;;;4.50;;
30948;SDS011;17637;51.984;21.208;2024-01-27T05:52:01;19.98;;;4.57;;
30948;SDS011;17637;51.984;21.208;2024-01-27T05:54:33;16.42;;;4.03;;
30948;SDS011;17637;51.984;21.208;2024-01-27T05:57:06;20.92;;;4.90;;
30948;SDS011;17637;51.984;21.208;2024-01-27T05:59:38;16.88;;;4.22;;
30948;SDS011;17637;51.984;21.208;2024-01-27T06:02:10;18.20;;;4.45;;
30948;SDS011;17637;51.984;21.208;2024-01-27T06:04:42;20.75;;;5.03;;
30948;SDS011;17637;51.984;21.208;2024-01-27T06:07:14;19.40;;;4.30;;
30948;SDS011;17637;51.984;21.208;2024-01-27T06:09:46;24.10;;;5.10;;
30948;SDS011;17637;51.984;21.208;2024-01-27T06:12:19;22.08;;;4.43;;
30948;SDS011;17637;51.984;21.208;2024-01-27T06:14:51;20.65;;;4.60;;
30948;SDS011;17637;51.984;21.208;2024-01-27T06:17:23;18.88;;;4.63;;
30948;SDS011;17637;51.984;21.208;2024-01-27T06:19:55;22.42;;;5.20;;
30948;SDS011;17637;51.984;21.208;2024-01-27T06:22:27;17.85;;;4.15;;
30948;SDS011;17637;51.984;21.208;2024-01-27T06:24:59;14.43;;;3.63;;
30948;SDS011;17637;51.984;21.208;2024-01-27T06:27:31;20.63;;;5.18;;
30948;SDS011;17637;51.984;21.208;2024-01-27T06:30:04;19.15;;;4.90;;
30948;SDS011;17637;51.984;21.208;2024-01-27T06:32:37;19.08;;;4.50;;
30948;SDS011;17637;51.984;21.208;2024-01-27T06:35:09;19.65;;;4.80;;
30948;SDS011;17637;51.984;21.208;2024-01-27T06:37:41;22.58;;;4.68;;
30948;SDS011;17637;51.984;21.208;2024-01-27T06:40:13;14.80;;;4.28;;
30948;SDS011;17637;51.984;21.208;2024-01-27T06:42:46;21.95;;;4.47;;
30948;SDS011;17637;51.984;21.208;2024-01-27T06:45:18;15.93;;;3.78;;
30948;SDS011;17637;51.984;21.208;2024-01-27T06:47:50;15.82;;;4.18;;
30948;SDS011;17637;51.984;21.208;2024-01-27T06:50:22;24.00;;;5.45;;
30948;SDS011;17637;51.984;21.208;2024-01-27T06:52:54;19.92;;;4.53;;
30948;SDS011;17637;51.984;21.208;2024-01-27T06:55:26;18.50;;;4.60;;
30948;SDS011;17637;51.984;21.208;2024-01-27T06:57:58;19.10;;;4.93;;
30948;SDS011;17637;51.984;21.208;2024-01-27T07:00:30;17.27;;;4.63;;
30948;SDS011;17637;51.984;21.208;2024-01-27T07:03:03;14.10;;;4.55;;
30948;SDS011;17637;51.984;21.208;2024-01-27T07:05:35;17.13;;;5.03;;
30948;SDS011;17637;51.984;21.208;2024-01-27T07:08:10;18.02;;;4.68;;
30948;SDS011;17637;51.984;21.208;2024-01-27T07:10:42;18.02;;;4.75;;
30948;SDS011;17637;51.984;21.208;2024-01-27T07:13:14;16.45;;;4.50;;
30948;SDS011;17637;51.984;21.208;2024-01-27T07:15:46;24.80;;;5.55;;
30948;SDS011;17637;51.984;21.208;2024-01-27T07:18:19;26.85;;;13.07;;
30948;SDS011;17637;51.984;21.208;2024-01-27T07:20:51;15.25;;;6.20;;
30948;SDS011;17637;51.984;21.208;2024-01-27T07:23:23;16.73;;;5.10;;
30948;SDS011;17637;51.984;21.208;2024-01-27T07:25:55;27.25;;;9.07;;
30948;SDS011;17637;51.984;21.208;2024-01-27T07:28:28;23.38;;;5.75;;
30948;SDS011;17637;51.984;21.208;2024-01-27T07:31:00;16.58;;;5.60;;
30948;SDS011;17637;51.984;21.208;2024-01-27T07:33:32;17.17;;;6.60;;
30948;SDS011;17637;51.984;21.208;2024-01-27T07:36:04;23.73;;;9.23;;
30948;SDS011;17637;51.984;21.208;2024-01-27T07:38:36;26.50;;;13.27;;
30948;SDS011;17637;51.984;21.208;2024-01-27T07:41:08;24.50;;;10.00;;
30948;SDS011;17637;51.984;21.208;2024-01-27T07:43:40;21.23;;;9.40;;
30948;SDS011;17637;51.984;21.208;2024-01-27T07:46:12;22.42;;;9.43;;
30948;SDS011;17637;51.984;21.208;2024-01-27T07:48:44;21.77;;;6.18;;
30948;SDS011;17637;51.984;21.208;2024-01-27T07:51:16;22.17;;;9.93;;
30948;SDS011;17637;51.984;21.208;2024-01-27T07:53:48;19.10;;;7.85;;
30948;SDS011;17637;51.984;21.208;2024-01-27T07:56:20;21.00;;;7.13;;
30948;SDS011;17637;51.984;21.208;2024-01-27T07:58:52;19.88;;;9.10;;
30948;SDS011;17637;51.984;21.208;2024-01-27T08:01:24;20.98;;;7.88;;
30948;SDS011;17637;51.984;21.208;2024-01-27T08:03:56;30.33;;;15.98;;
30948;SDS011;17637;51.984;21.208;2024-01-27T08:06:29;24.45;;;9.73;;
30948;SDS011;17637;51.984;21.208;2024-01-27T08:09:01;19.48;;;6.60;;
30948;SDS011;17637;51.984;21.208;2024-01-27T08:11:33;16.30;;;8.07;;
30948;SDS011;17637;51.984;21.208;2024-01-27T08:14:05;18.20;;;8.77;;
30948;SDS011;17637;51.984;21.208;2024-01-27T08:16:37;19.38;;;7.20;;
30948;SDS011;17637;51.984;21.208;2024-01-27T08:19:09;17.27;;;7.50;;
30948;SDS011;17637;51.984;21.208;2024-01-27T08:21:41;18.60;;;6.70;;
30948;SDS011;17637;51.984;21.208;2024-01-27T08:24:13;10.95;;;5.07;;
30948;SDS011;17637;51.984;21.208;2024-01-27T08:26:45;15.68;;;6.63;;
30948;SDS011;17637;51.984;21.208;2024-01-27T08:29:19;14.95;;;6.03;;
30948;SDS011;17637;51.984;21.208;2024-01-27T08:31:51;15.15;;;6.43;;
30948;SDS011;17637;51.984;21.208;2024-01-27T08:34:23;21.13;;;7.68;;
30948;SDS011;17637;51.984;21.208;2024-01-27T08:37:00;21.20;;;9.38;;
30948;SDS011;17637;51.984;21.208;2024-01-27T08:39:33;22.92;;;9.25;;
30948;SDS011;17637;51.984;21.208;2024-01-27T08:42:05;23.65;;;8.82;;
30948;SDS011;17637;51.984;21.208;2024-01-27T08:44:37;20.58;;;10.02;;
30948;SDS011;17637;51.984;21.208;2024-01-27T08:47:10;20.35;;;7.72;;
30948;SDS011;17637;51.984;21.208;2024-01-27T08:49:42;22.50;;;11.25;;
30948;SDS011;17637;51.984;21.208;2024-01-27T08:52:14;18.08;;;9.10;;
30948;SDS011;17637;51.984;21.208;2024-01-27T08:54:46;11.20;;;5.72;;
30948;SDS011;17637;51.984;21.208;2024-01-27T08:57:17;11.65;;;5.85;;
30948;SDS011;17637;51.984;21.208;2024-01-27T08:59:50;15.90;;;5.88;;
30948;SDS011;17637;51.984;21.208;2024-01-27T09:02:21;15.93;;;8.30;;
30948;SDS011;17637;51.984;21.208;2024-01-27T09:04:53;16.55;;;8.10;;
30948;SDS011;17637;51.984;21.208;2024-01-27T09:07:25;11.93;;;6.47;;
30948;SDS011;17637;51.984;21.208;2024-01-27T09:09:57;11.02;;;5.40;;
30948;SDS011;17637;51.984;21.208;2024-01-27T09:12:29;15.27;;;8.15;;
30948;SDS011;17637;51.984;21.208;2024-01-27T09:15:01;11.95;;;5.78;;
30948;SDS011;17637;51.984;21.208;2024-01-27T09:17:33;12.57;;;5.97;;
30948;SDS011;17637;51.984;21.208;2024-01-27T09:20:05;16.17;;;6.38;;
30948;SDS011;17637;51.984;21.208;2024-01-27T09:22:37;15.95;;;6.78;;
30948;SDS011;17637;51.984;21.208;2024-01-27T09:25:09;15.45;;;7.63;;
30948;SDS011;17637;51.984;21.208;2024-01-27T09:27:41;11.27;;;6.00;;
30948;SDS011;17637;51.984;21.208;2024-01-27T09:30:13;12.88;;;6.53;;
30948;SDS011;17637;51.984;21.208;2024-01-27T09:32:46;13.98;;;6.55;;
30948;SDS011;17637;51.984;21.208;2024-01-27T09:35:18;18.48;;;10.45;;
30948;SDS011;17637;51.984;21.208;2024-01-27T09:37:52;15.88;;;9.85;;
30948;SDS011;17637;51.984;21.208;2024-01-27T09:40:23;22.63;;;10.73;;
30948;SDS011;17637;51.984;21.208;2024-01-27T09:42:56;18.55;;;8.27;;
30948;SDS011;17637;51.984;21.208;2024-01-27T09:45:30;15.55;;;7.35;;
30948;SDS011;17637;51.984;21.208;2024-01-27T09:48:02;15.85;;;7.97;;
30948;SDS011;17637;51.984;21.208;2024-01-27T09:50:36;20.60;;;11.68;;
30948;SDS011;17637;51.984;21.208;2024-01-27T09:53:10;20.50;;;11.68;;
30948;SDS011;17637;51.984;21.208;2024-01-27T09:55:43;16.48;;;10.45;;
30948;SDS011;17637;51.984;21.208;2024-01-27T09:58:16;20.15;;;13.38;;
30948;SDS011;17637;51.984;21.208;2024-01-27T10:00:47;15.25;;;10.43;;
30948;SDS011;17637;51.984;21.208;2024-01-27T10:03:22;13.98;;;8.50;;
30948;SDS011;17637;51.984;21.208;2024-01-27T10:05:56;12.38;;;7.78;;
30948;SDS011;17637;51.984;21.208;2024-01-27T10:08:29;14.52;;;8.63;;
30948;SDS011;17637;51.984;21.208;2024-01-27T10:11:05;14.95;;;9.07;;
30948;SDS011;17637;51.984;21.208;2024-01-27T10:13:39;21.25;;;17.33;;
30948;SDS011;17637;51.984;21.208;2024-01-27T10:16:10;12.57;;;10.00;;
30948;SDS011;17637;51.984;21.208;2024-01-27T10:18:43;23.77;;;17.83;;
30948;SDS011;17637;51.984;21.208;2024-01-27T10:21:16;17.70;;;11.55;;
30948;SDS011;17637;51.984;21.208;2024-01-27T10:23:49;19.77;;;14.30;;
30948;SDS011;17637;51.984;21.208;2024-01-27T10:26:21;19.50;;;14.88;;
30948;SDS011;17637;51.984;21.208;2024-01-27T10:28:56;18.95;;;11.98;;
30948;SDS011;17637;51.984;21.208;2024-01-27T10:31:29;17.63;;;11.60;;
30948;SDS011;17637;51.984;21.208;2024-01-27T10:34:02;9.02;;;5.38;;
30948;SDS011;17637;51.984;21.208;2024-01-27T10:36:40;13.43;;;8.50;;
30948;SDS011;17637;51.984;21.208;2024-01-27T10:39:22;12.52;;;6.93;;
30948;SDS011;17637;51.984;21.208;2024-01-27T10:41:55;11.43;;;6.80;;
30948;SDS011;17637;51.984;21.208;2024-01-27T10:44:30;9.90;;;5.97;;
30948;SDS011;17637;51.984;21.208;2024-01-27T10:47:02;11.00;;;7.38;;
30948;SDS011;17637;51.984;21.208;2024-01-27T10:49:36;23.67;;;16.30;;
30948;SDS011;17637;51.984;21.208;2024-01-27T10:52:13;29.17;;;24.67;;
30948;SDS011;17637;51.984;21.208;2024-01-27T10:54:49;10.18;;;7.05;;
30948;SDS011;17637;51.984;21.208;2024-01-27T10:57:23;12.55;;;7.55;;
30948;SDS011;17637;51.984;21.208;2024-01-27T10:59:57;17.02;;;11.95;;
30948;SDS011;17637;51.984;21.208;2024-01-27T11:02:31;10.73;;;6.65;;
30948;SDS011;17637;51.984;21.208;2024-01-27T11:05:04;10.15;;;6.85;;
30948;SDS011;17637;51.984;21.208;2024-01-27T11:07:38;11.45;;;6.63;;
30948;SDS011;17637;51.984;21.208;2024-01-27T11:10:12;9.95;;;5.68;;
30948;SDS011;17637;51.984;21.208;2024-01-27T11:12:44;13.05;;;9.13;;
30948;SDS011;17637;51.984;21.208;2024-01-27T11:15:18;9.00;;;7.07;;
30948;SDS011;17637;51.984;21.208;2024-01-27T11:17:50;11.63;;;9.60;;
30948;SDS011;17637;51.984;21.208;2024-01-27T11:20:22;8.85;;;6.38;;
30948;SDS011;17637;51.984;21.208;2024-01-27T11:22:54;11.73;;;7.60;;
30948;SDS011;17637;51.984;21.208;2024-01-27T11:25:28;10.40;;;7.45;;
30948;SDS011;17637;51.984;21.208;2024-01-27T11:28:10;10.07;;;7.00;;
30948;SDS011;17637;51.984;21.208;2024-01-27T11:30:48;10.63;;;7.22;;
30948;SDS011;17637;51.984;21.208;2024-01-27T11:33:20;10.27;;;6.65;;
30948;SDS011;17637;51.984;21.208;2024-01-27T11:36:03;9.80;;;7.22;;
30948;SDS011;17637;51.984;21.208;2024-01-27T11:38:36;12.15;;;8.80;;
30948;SDS011;17637;51.984;21.208;2024-01-27T11:41:08;14.10;;;7.97;;
30948;SDS011;17637;51.984;21.208;2024-01-27T11:43:40;8.32;;;5.50;;
30948;SDS011;17637;51.984;21.208;2024-01-27T11:46:12;10.05;;;6.43;;
30948;SDS011;17637;51.984;21.208;2024-01-27T11:48:44;11.07;;;7.05;;
30948;SDS011;17637;51.984;21.208;2024-01-27T11:51:16;14.60;;;8.20;;
30948;SDS011;17637;51.984;21.208;2024-01-27T11:53:50;9.68;;;7.20;;
30948;SDS011;17637;51.984;21.208;2024-01-27T11:56:22;11.35;;;7.57;;
30948;SDS011;17637;51.984;21.208;2024-01-27T11:58:53;9.75;;;6.75;;
30948;SDS011;17637;51.984;21.208;2024-01-27T12:01:25;10.68;;;7.75;;
30948;SDS011;17637;51.984;21.208;2024-01-27T12:03:57;9.85;;;6.43;;
30948;SDS011;17637;51.984;21.208;2024-01-27T12:06:29;7.68;;;4.95;;
30948;SDS011;17637;51.984;21.208;2024-01-27T12:09:02;14.10;;;9.20;;
30948;SDS011;17637;51.984;21.208;2024-01-27T12:11:34;10.70;;;6.78;;
30948;SDS011;17637;51.984;21.208;2024-01-27T12:14:06;15.68;;;10.52;;
30948;SDS011;17637;51.984;21.208;2024-01-27T12:16:38;13.57;;;9.18;;
30948;SDS011;17637;51.984;21.208;2024-01-27T12:19:10;11.63;;;6.80;;
30948;SDS011;17637;51.984;21.208;2024-01-27T12:21:47;10.88;;;8.55;;
30948;SDS011;17637;51.984;21.208;2024-01-27T12:24:21;11.57;;;8.80;;
30948;SDS011;17637;51.984;21.208;2024-01-27T12:26:55;9.43;;;6.00;;
30948;SDS011;17637;51.984;21.208;2024-01-27T12:29:29;11.07;;;7.55;;
30948;SDS011;17637;51.984;21.208;2024-01-27T12:32:01;13.30;;;9.40;;
30948;SDS011;17637;51.984;21.208;2024-01-27T12:34:33;12.27;;;7.10;;
30948;SDS011;17637;51.984;21.208;2024-01-27T12:37:11;30.80;;;20.75;;
30948;SDS011;17637;51.984;21.208;2024-01-27T12:39:47;15.50;;;11.63;;
30948;SDS011;17637;51.984;21.208;2024-01-27T12:42:22;28.27;;;22.30;;
30948;SDS011;17637;51.984;21.208;2024-01-27T12:44:54;26.08;;;18.88;;
30948;SDS011;17637;51.984;21.208;2024-01-27T12:47:26;35.13;;;29.23;;
30948;SDS011;17637;51.984;21.208;2024-01-27T12:49:58;18.23;;;14.98;;
30948;SDS011;17637;51.984;21.208;2024-01-27T12:52:30;25.17;;;17.38;;
30948;SDS011;17637;51.984;21.208;2024-01-27T12:55:02;18.17;;;12.43;;
30948;SDS011;17637;51.984;21.208;2024-01-27T12:57:35;13.10;;;9.77;;
30948;SDS011;17637;51.984;21.208;2024-01-27T13:00:07;13.45;;;9.68;;
30948;SDS011;17637;51.984;21.208;2024-01-27T13:02:41;80.18;;;39.55;;
30948;SDS011;17637;51.984;21.208;2024-01-27T13:05:14;52.83;;;37.60;;
30948;SDS011;17637;51.984;21.208;2024-01-27T13:07:46;36.25;;;31.00;;
30948;SDS011;17637;51.984;21.208;2024-01-27T13:10:19;27.27;;;20.58;;
30948;SDS011;17637;51.984;21.208;2024-01-27T13:12:51;37.53;;;29.80;;
30948;SDS011;17637;51.984;21.208;2024-01-27T13:15:23;34.20;;;26.50;;
30948;SDS011;17637;51.984;21.208;2024-01-27T13:17:57;22.55;;;19.98;;
30948;SDS011;17637;51.984;21.208;2024-01-27T13:20:29;36.00;;;22.45;;
30948;SDS011;17637;51.984;21.208;2024-01-27T13:23:00;34.03;;;26.33;;
30948;SDS011;17637;51.984;21.208;2024-01-27T13:25:32;27.45;;;18.33;;
30948;SDS011;17637;51.984;21.208;2024-01-27T13:28:04;26.73;;;19.27;;
30948;SDS011;17637;51.984;21.208;2024-01-27T13:30:39;30.98;;;26.15;;
30948;SDS011;17637;51.984;21.208;2024-01-27T13:33:11;34.15;;;27.30;;
30948;SDS011;17637;51.984;21.208;2024-01-27T13:35:43;13.43;;;9.55;;
30948;SDS011;17637;51.984;21.208;2024-01-27T13:38:18;25.25;;;18.90;;
30948;SDS011;17637;51.984;21.208;2024-01-27T13:40:55;29.88;;;20.33;;
30948;SDS011;17637;51.984;21.208;2024-01-27T13:43:26;17.58;;;11.52;;
30948;SDS011;17637;51.984;21.208;2024-01-27T13:45:58;13.15;;;9.85;;
30948;SDS011;17637;51.984;21.208;2024-01-27T13:48:30;10.95;;;7.47;;
30948;SDS011;17637;51.984;21.208;2024-01-27T13:51:02;12.65;;;8.27;;
30948;SDS011;17637;51.984;21.208;2024-01-27T13:53:34;19.25;;;13.18;;
30948;SDS011;17637;51.984;21.208;2024-01-27T13:56:17;13.18;;;9.82;;
30948;SDS011;17637;51.984;21.208;2024-01-27T13:58:49;14.90;;;12.88;;
30948;SDS011;17637;51.984;21.208;2024-01-27T14:01:22;22.63;;;20.02;;
30948;SDS011;17637;51.984;21.208;2024-01-27T14:03:54;17.38;;;14.10;;
30948;SDS011;17637;51.984;21.208;2024-01-27T14:06:26;11.43;;;7.03;;
30948;SDS011;17637;51.984;21.208;2024-01-27T14:08:58;15.77;;;12.80;;
30948;SDS011;17637;51.984;21.208;2024-01-27T14:11:30;15.70;;;11.65;;
30948;SDS011;17637;51.984;21.208;2024-01-27T14:14:02;16.70;;;12.93;;
30948;SDS011;17637;51.984;21.208;2024-01-27T14:16:34;19.52;;;14.00;;
30948;SDS011;17637;51.984;21.208;2024-01-27T14:19:06;20.65;;;17.80;;
30948;SDS011;17637;51.984;21.208;2024-01-27T14:21:39;25.15;;;17.05;;
30948;SDS011;17637;51.984;21.208;2024-01-27T14:24:11;20.83;;;14.38;;
30948;SDS011;17637;51.984;21.208;2024-01-27T14:26:43;16.63;;;13.70;;
30948;SDS011;17637;51.984;21.208;2024-01-27T14:29:15;24.33;;;20.38;;
30948;SDS011;17637;51.984;21.208;2024-01-27T14:31:48;10.80;;;9.10;;
30948;SDS011;17637;51.984;21.208;2024-01-27T14:34:20;12.18;;;8.18;;
30948;SDS011;17637;51.984;21.208;2024-01-27T14:36:52;10.57;;;8.23;;
30948;SDS011;17637;51.984;21.208;2024-01-27T14:39:26;11.52;;;8.65;;
30948;SDS011;17637;51.984;21.208;2024-01-27T14:41:58;15.70;;;10.15;;
30948;SDS011;17637;51.984;21.208;2024-01-27T14:44:30;11.00;;;8.60;;
30948;SDS011;17637;51.984;21.208;2024-01-27T14:47:04;10.90;;;8.38;;
30948;SDS011;17637;51.984;21.208;2024-01-27T14:49:36;18.65;;;15.20;;
30948;SDS011;17637;51.984;21.208;2024-01-27T14:52:09;13.38;;;11.98;;